createdAt,value
2022-09-30T00:01:05.402Z,100471.81
2022-09-30T00:03:31.770Z,100470.44
2022-09-30T00:06:08.065Z,100464.56
2022-09-30T00:08:36.509Z,100477.53
2022-09-30T00:11:18.420Z,100470.69
2022-09-30T00:13:47.535Z,100469.44
2022-09-30T00:16:15.282Z,100472.41
2022-09-30T00:18:43.471Z,100470.91
2022-09-30T00:21:11.384Z,100459.69
2022-09-30T00:23:39.708Z,100468.16
2022-09-30T00:26:12.033Z,100461.84
2022-09-30T00:28:40.059Z,100470.00
2022-09-30T00:31:13.574Z,100476.47
2022-09-30T00:33:40.475Z,100474.94
2022-09-30T00:36:06.907Z,100479.44
2022-09-30T00:38:33.401Z,100478.78
2022-09-30T00:41:01.314Z,100473.44
2022-09-30T00:43:45.473Z,100477.78
2022-09-30T00:46:32.411Z,100453.59
2022-09-30T00:49:03.379Z,100480.22
2022-09-30T00:51:42.317Z,100466.75
2022-09-30T00:54:20.962Z,100479.66
2022-09-30T00:56:51.827Z,100481.63
2022-09-30T00:59:25.137Z,100478.28
2022-09-30T01:01:51.944Z,100474.94
2022-09-30T01:04:24.442Z,100478.59
2022-09-30T01:06:51.715Z,100471.75
2022-09-30T01:09:19.702Z,100465.47
2022-09-30T01:11:47.415Z,100475.53
2022-09-30T01:14:31.911Z,100479.88
2022-09-30T01:17:01.540Z,100484.38
2022-09-30T01:19:58.239Z,100487.59
2022-09-30T01:22:31.890Z,100494.22
2022-09-30T01:25:25.062Z,100495.34
2022-09-30T01:28:09.825Z,100486.50
2022-09-30T01:31:13.755Z,100492.84
2022-09-30T01:33:42.837Z,100492.28
2022-09-30T01:36:46.786Z,100489.63
2022-09-30T01:39:20.085Z,100495.41
2022-09-30T01:42:10.020Z,100500.75
2022-09-30T01:44:48.632Z,100495.72
2022-09-30T01:47:33.154Z,100494.19
2022-09-30T01:50:44.267Z,100497.69
2022-09-30T01:53:13.515Z,100499.28
2022-09-30T01:55:52.495Z,100492.28
2022-09-30T01:58:28.433Z,100486.53
2022-09-30T02:01:01.079Z,100490.34
2022-09-30T02:03:37.851Z,100498.47
2022-09-30T02:06:12.074Z,100499.47
2022-09-30T02:08:39.154Z,100498.75
2022-09-30T02:11:18.292Z,100496.28
2022-09-30T02:13:51.322Z,100501.06
2022-09-30T02:16:27.281Z,100502.16
2022-09-30T02:19:00.161Z,100481.75
2022-09-30T02:21:33.557Z,100514.66
2022-09-30T02:24:07.900Z,100514.50
2022-09-30T02:26:41.450Z,100513.53
2022-09-30T02:29:15.496Z,100514.25
2022-09-30T02:31:46.423Z,100514.94
2022-09-30T02:34:20.012Z,100516.31
2022-09-30T02:37:27.725Z,100510.94
2022-09-30T02:40:03.332Z,100504.66
2022-09-30T02:42:31.560Z,100532.66
2022-09-30T02:45:04.145Z,100537.56
2022-09-30T02:47:36.667Z,100531.94
2022-09-30T02:50:20.400Z,100531.31
2022-09-30T02:53:05.308Z,100540.41
2022-09-30T02:55:53.614Z,100537.91
2022-09-30T02:58:22.459Z,100536.75
2022-09-30T03:00:50.298Z,100539.84
2022-09-30T03:03:22.702Z,100543.34
2022-09-30T03:05:50.619Z,100545.00
2022-09-30T03:08:17.325Z,100545.00
2022-09-30T03:10:45.106Z,100540.81
2022-09-30T03:13:23.592Z,100548.69
2022-09-30T03:16:27.806Z,100548.34
2022-09-30T03:19:21.518Z,100549.34
2022-09-30T03:22:19.142Z,100558.19
2022-09-30T03:24:46.265Z,100560.00
2022-09-30T03:27:33.615Z,100565.06
2022-09-30T03:30:07.757Z,100540.13
2022-09-30T03:32:59.479Z,100559.97
2022-09-30T03:36:20.302Z,100554.50
2022-09-30T03:39:03.118Z,100559.84
2022-09-30T03:41:45.603Z,100545.25
2022-09-30T03:44:32.280Z,100560.53
2022-09-30T03:47:07.976Z,100535.16
2022-09-30T03:49:49.924Z,100562.03
2022-09-30T03:52:17.265Z,100558.66
2022-09-30T03:54:58.581Z,100565.53
2022-09-30T03:57:29.369Z,100554.34
2022-09-30T03:59:59.889Z,100565.53
2022-09-30T04:02:27.669Z,100574.38
2022-09-30T04:04:54.079Z,100573.53
2022-09-30T04:07:20.489Z,100540.50
2022-09-30T04:09:46.939Z,100569.88
2022-09-30T04:12:13.458Z,100570.72
2022-09-30T04:14:39.836Z,100583.09
2022-09-30T04:17:06.440Z,100574.38
2022-09-30T04:19:38.285Z,100576.91
2022-09-30T04:22:04.662Z,100589.28
2022-09-30T04:24:31.054Z,100592.78
2022-09-30T04:26:57.580Z,100593.91
2022-09-30T04:29:24.292Z,100586.75
2022-09-30T04:31:50.668Z,100591.94
2022-09-30T04:34:17.099Z,100601.34
2022-09-30T04:36:43.466Z,100610.03
2022-09-30T04:39:09.881Z,100599.81
2022-09-30T04:41:36.661Z,100605.22
2022-09-30T04:44:06.300Z,100612.25
2022-09-30T04:46:34.519Z,100612.78
2022-09-30T04:49:00.976Z,100620.09
2022-09-30T04:51:27.434Z,100618.81
2022-09-30T04:53:54.852Z,100625.84
2022-09-30T04:56:21.242Z,100615.91
2022-09-30T04:58:47.873Z,100629.34
2022-09-30T05:01:16.455Z,100634.00
2022-09-30T05:03:47.103Z,100634.16
2022-09-30T05:06:14.499Z,100642.56
2022-09-30T05:08:46.164Z,100640.88
2022-09-30T05:11:18.837Z,100651.56
2022-09-30T05:13:46.238Z,100644.97
2022-09-30T05:16:13.978Z,100647.13
2022-09-30T05:18:42.660Z,100649.94
2022-09-30T05:21:10.221Z,100643.34
2022-09-30T05:23:36.791Z,100653.34
2022-09-30T05:26:03.443Z,100658.97
2022-09-30T05:28:31.309Z,100654.22
2022-09-30T05:31:00.203Z,100657.19
2022-09-30T05:33:29.435Z,100660.16
2022-09-30T05:35:59.736Z,100665.78
2022-09-30T05:38:26.050Z,100666.03
2022-09-30T05:40:52.758Z,100670.59
2022-09-30T05:43:19.366Z,100669.03
2022-09-30T05:45:56.579Z,100667.50
2022-09-30T05:48:25.426Z,100660.78
2022-09-30T05:50:59.748Z,100662.59
2022-09-30T05:53:26.208Z,100659.56
2022-09-30T05:55:52.835Z,100656.03
2022-09-30T05:58:19.811Z,100663.34
2022-09-30T06:00:48.696Z,100662.50
2022-09-30T06:03:15.950Z,100663.47
2022-09-30T06:05:42.670Z,100646.53
2022-09-30T06:08:10.044Z,100681.31
2022-09-30T06:10:36.508Z,100680.47
2022-09-30T06:13:04.271Z,100682.16
2022-09-30T06:15:30.885Z,100680.47
2022-09-30T06:17:58.275Z,100657.63
2022-09-30T06:20:24.931Z,100666.88
2022-09-30T06:22:51.288Z,100690.53
2022-09-30T06:25:17.819Z,100691.09
2022-09-30T06:27:46.600Z,100694.47
2022-09-30T06:30:13.921Z,100679.31
2022-09-30T06:32:40.446Z,100686.19
2022-09-30T06:35:07.065Z,100658.00
2022-09-30T06:37:34.169Z,100678.88
2022-09-30T06:40:00.709Z,100686.59
2022-09-30T06:42:27.163Z,100691.75
2022-09-30T06:44:54.299Z,100693.16
2022-09-30T06:47:25.225Z,100687.69
2022-09-30T06:49:53.003Z,100675.94
2022-09-30T06:52:20.214Z,100696.34
2022-09-30T06:54:47.029Z,100704.75
2022-09-30T06:57:13.743Z,100707.84
2022-09-30T06:59:40.095Z,100707.22
2022-09-30T07:02:06.618Z,100701.44
2022-09-30T07:04:33.129Z,100696.81
2022-09-30T07:06:59.521Z,100706.44
2022-09-30T07:09:26.079Z,100691.69
2022-09-30T07:11:52.557Z,100710.22
2022-09-30T07:14:18.943Z,100690.28
2022-09-30T07:16:45.892Z,100703.25
2022-09-30T07:19:12.565Z,100702.81
2022-09-30T07:21:38.931Z,100705.06
2022-09-30T07:24:05.629Z,100709.91
2022-09-30T07:26:32.394Z,100713.16
2022-09-30T07:29:00.155Z,100718.19
2022-09-30T07:31:35.505Z,100696.97
2022-09-30T07:34:07.420Z,100715.16
2022-09-30T07:36:37.080Z,100719.19
2022-09-30T07:39:08.407Z,100715.78
2022-09-30T07:41:38.746Z,100724.34
2022-09-30T07:44:06.341Z,100722.81
2022-09-30T07:46:34.847Z,100721.28
2022-09-30T07:49:03.952Z,100725.66
2022-09-30T07:51:35.857Z,100733.91
2022-09-30T07:54:08.646Z,100718.91
2022-09-30T07:57:05.199Z,100726.47
2022-09-30T07:59:25.960Z,100734.56
2022-09-30T08:01:52.561Z,100730.44
2022-09-30T08:04:20.512Z,100728.16
2022-09-30T08:06:56.660Z,100733.53
2022-09-30T08:09:25.871Z,100729.56
2022-09-30T08:11:53.053Z,100725.44
2022-09-30T08:14:22.414Z,100728.00
2022-09-30T08:16:50.287Z,100712.06
2022-09-30T08:19:22.175Z,100734.59
2022-09-30T08:21:49.792Z,100712.81
2022-09-30T08:24:16.647Z,100737.38
2022-09-30T08:26:43.401Z,100738.09
2022-09-30T08:29:20.357Z,100724.38
2022-09-30T08:31:47.704Z,100738.88
2022-09-30T08:34:14.130Z,100734.72
2022-09-30T08:36:40.565Z,100736.44
2022-09-30T08:39:07.059Z,100743.31
2022-09-30T08:41:39.241Z,100753.63
2022-09-30T08:44:22.829Z,100753.13
2022-09-30T08:46:58.693Z,100706.84
2022-09-30T08:49:42.567Z,100755.03
2022-09-30T08:52:24.543Z,100732.38
2022-09-30T08:55:01.805Z,100755.22
2022-09-30T08:57:37.259Z,100754.03
2022-09-30T09:00:10.149Z,100755.72
2022-09-30T09:02:49.056Z,100761.28
2022-09-30T09:05:41.337Z,100759.91
2022-09-30T09:08:17.348Z,100767.44
2022-09-30T09:10:59.265Z,100768.59
2022-09-30T09:13:39.310Z,100762.03
2022-09-30T09:16:14.932Z,100763.00
2022-09-30T09:18:59.967Z,100773.06
2022-09-30T09:22:01.870Z,100768.47
2022-09-30T09:24:42.791Z,100753.84
2022-09-30T09:27:47.248Z,100768.59
2022-09-30T09:30:19.430Z,100764.38
2022-09-30T09:32:52.451Z,100766.88
2022-09-30T09:35:28.104Z,100767.50
2022-09-30T09:38:24.659Z,100768.94
2022-09-30T09:41:25.881Z,100768.84
2022-09-30T09:44:14.293Z,100778.97
2022-09-30T09:46:46.485Z,100775.19
2022-09-30T09:49:23.603Z,100775.56
2022-09-30T09:51:58.970Z,100771.75
2022-09-30T09:54:28.090Z,100775.59
2022-09-30T09:56:54.803Z,100761.56
2022-09-30T09:59:21.679Z,100765.13
2022-09-30T10:01:50.872Z,100787.34
2022-09-30T10:04:21.027Z,100780.88
2022-09-30T10:06:55.449Z,100740.88
2022-09-30T10:09:27.488Z,100784.03
2022-09-30T10:12:06.116Z,100784.59
2022-09-30T10:14:36.111Z,100779.56
2022-09-30T10:17:05.816Z,100787.94
2022-09-30T10:19:34.782Z,100794.91
2022-09-30T10:22:09.970Z,100789.81
2022-09-30T10:24:37.931Z,100785.31
2022-09-30T10:27:05.132Z,100784.22
2022-09-30T10:29:35.995Z,100764.22
2022-09-30T10:32:06.634Z,100785.72
2022-09-30T10:34:37.002Z,100779.34
2022-09-30T10:37:11.163Z,100782.75
2022-09-30T10:39:39.309Z,100782.19
2022-09-30T10:42:26.359Z,100782.78
2022-09-30T10:45:04.307Z,100792.47
2022-09-30T10:47:35.659Z,100790.97
2022-09-30T10:50:07.011Z,100789.13
2022-09-30T10:52:44.500Z,100776.06
2022-09-30T10:55:19.676Z,100774.91
2022-09-30T10:57:47.034Z,100782.91
2022-09-30T11:00:22.841Z,100781.56
2022-09-30T11:02:53.918Z,100787.63
2022-09-30T11:05:24.407Z,100782.50
2022-09-30T11:08:01.600Z,100786.13
2022-09-30T11:11:10.135Z,100783.25
2022-09-30T11:13:57.343Z,100779.16
2022-09-30T11:17:05.384Z,100787.34
2022-09-30T11:19:43.948Z,100785.47
2022-09-30T11:22:48.015Z,100777.75
2022-09-30T11:25:27.513Z,100782.09
2022-09-30T11:28:14.617Z,100780.03
2022-09-30T11:31:20.487Z,100777.53
2022-09-30T11:34:05.061Z,100775.25
2022-09-30T11:36:49.883Z,100769.81
2022-09-30T11:39:46.010Z,100766.22
2022-09-30T11:42:48.662Z,100770.59
2022-09-30T11:45:29.219Z,100764.50
2022-09-30T11:48:32.986Z,100770.06
2022-09-30T11:51:11.812Z,100769.03
2022-09-30T11:53:47.296Z,100767.78
2022-09-30T11:56:26.988Z,100764.06
2022-09-30T11:58:59.951Z,100762.88
2022-09-30T12:01:34.018Z,100764.78
2022-09-30T12:04:10.506Z,100763.28
2022-09-30T12:06:47.190Z,100763.75
2022-09-30T12:09:21.051Z,100759.94
2022-09-30T12:11:55.305Z,100760.78
2022-09-30T12:14:35.916Z,100767.00
2022-09-30T12:17:07.761Z,100761.09
2022-09-30T12:19:43.869Z,100767.72
2022-09-30T12:22:16.187Z,100765.13
2022-09-30T12:24:45.753Z,100770.06
2022-09-30T12:27:19.629Z,100759.94
2022-09-30T12:30:20.354Z,100757.84
2022-09-30T12:33:33.028Z,100754.50
2022-09-30T12:36:47.566Z,100753.34
2022-09-30T12:39:29.296Z,100763.94
2022-09-30T12:42:16.125Z,100766.28
2022-09-30T12:45:10.273Z,100767.38
2022-09-30T12:47:46.119Z,100773.88
2022-09-30T12:50:20.197Z,100768.66
2022-09-30T12:52:46.999Z,100757.34
2022-09-30T12:55:31.122Z,100759.56
2022-09-30T12:58:01.410Z,100756.69
2022-09-30T13:00:34.607Z,100750.13
2022-09-30T13:03:18.185Z,100760.50
2022-09-30T13:05:52.431Z,100756.41
2022-09-30T13:08:24.185Z,100753.91
2022-09-30T13:11:04.753Z,100743.06
2022-09-30T13:13:34.056Z,100754.41
2022-09-30T13:16:05.664Z,100751.75
2022-09-30T13:18:34.928Z,100751.38
2022-09-30T13:21:04.417Z,100749.94
2022-09-30T13:23:49.318Z,100741.16
2022-09-30T13:26:40.418Z,100752.25
2022-09-30T13:29:08.485Z,100739.28
2022-09-30T13:31:50.238Z,100755.13
2022-09-30T13:34:53.516Z,100748.19
2022-09-30T13:37:34.091Z,100746.72
2022-09-30T13:40:04.952Z,100739.88
2022-09-30T13:42:41.018Z,100749.47
2022-09-30T13:45:26.001Z,100729.47
2022-09-30T13:48:16.105Z,100728.78
2022-09-30T13:51:03.726Z,100732.25
2022-09-30T13:53:45.754Z,100731.09
2022-09-30T13:56:22.539Z,100728.63
2022-09-30T13:59:19.649Z,100717.78
2022-09-30T14:02:07.378Z,100719.91
2022-09-30T14:04:56.562Z,100725.72
2022-09-30T14:07:37.125Z,100724.50
2022-09-30T14:10:20.628Z,100722.22
2022-09-30T14:12:56.712Z,100721.00
2022-09-30T14:15:38.410Z,100726.44
2022-09-30T14:18:27.901Z,100725.38
2022-09-30T14:21:23.884Z,100719.13
2022-09-30T14:24:04.312Z,100721.63
2022-09-30T14:27:05.079Z,100722.88
2022-09-30T14:30:03.035Z,100714.38
2022-09-30T14:32:51.622Z,100723.13
2022-09-30T14:35:22.519Z,100718.13
2022-09-30T14:37:53.655Z,100722.94
2022-09-30T14:40:30.165Z,100715.19
2022-09-30T14:43:05.689Z,100711.88
2022-09-30T14:45:42.975Z,100707.69
2022-09-30T14:48:16.015Z,100703.69
2022-09-30T14:50:50.817Z,100709.75
2022-09-30T14:53:32.991Z,100697.22
2022-09-30T14:56:01.526Z,100705.38
2022-09-30T14:58:39.958Z,100706.84
2022-09-30T15:01:16.299Z,100698.75
2022-09-30T15:04:18.524Z,100699.75
2022-09-30T15:06:50.888Z,100695.78
2022-09-30T15:09:33.534Z,100701.63
2022-09-30T15:12:26.852Z,100706.22
2022-09-30T15:14:59.406Z,100701.81
2022-09-30T15:17:35.256Z,100698.88
2022-09-30T15:20:34.875Z,100707.66
2022-09-30T15:23:05.284Z,100699.53
2022-09-30T15:25:31.960Z,100695.13
2022-09-30T15:28:04.088Z,100696.16
2022-09-30T15:30:33.440Z,100692.59
2022-09-30T15:33:05.510Z,100675.31
2022-09-30T15:35:33.289Z,100692.59
2022-09-30T15:38:16.548Z,100693.63
2022-09-30T15:40:53.345Z,100691.50
2022-09-30T15:43:40.175Z,100698.19
2022-09-30T15:46:22.693Z,100697.97
2022-09-30T15:48:49.688Z,100690.84
2022-09-30T15:51:37.394Z,100694.59
2022-09-30T15:54:16.033Z,100695.81
2022-09-30T15:56:43.517Z,100690.38
2022-09-30T15:59:12.329Z,100687.81
2022-09-30T16:01:49.209Z,100698.63
2022-09-30T16:04:15.658Z,100691.03
2022-09-30T16:06:55.937Z,100690.53
2022-09-30T16:09:36.050Z,100664.72
2022-09-30T16:12:03.494Z,100701.72
2022-09-30T16:14:35.469Z,100693.72
2022-09-30T16:17:05.042Z,100702.50
2022-09-30T16:19:31.853Z,100697.28
2022-09-30T16:21:58.820Z,100700.69
2022-09-30T16:24:28.837Z,100701.59
2022-09-30T16:26:57.532Z,100690.72
2022-09-30T16:29:28.373Z,100699.78
2022-09-30T16:31:56.633Z,100703.53
2022-09-30T16:34:31.073Z,100702.13
2022-09-30T16:37:23.556Z,100689.13
2022-09-30T16:39:50.254Z,100692.56
2022-09-30T16:42:17.714Z,100698.78
2022-09-30T16:44:45.180Z,100695.19
2022-09-30T16:47:14.105Z,100697.03
2022-09-30T16:49:42.596Z,100682.69
2022-09-30T16:52:11.200Z,100688.22
2022-09-30T16:54:37.899Z,100688.16
2022-09-30T16:57:04.495Z,100689.13
2022-09-30T16:59:32.601Z,100690.91
2022-09-30T17:02:03.809Z,100679.00
2022-09-30T17:04:31.340Z,100689.84
2022-09-30T17:06:59.001Z,100686.22
2022-09-30T17:09:25.354Z,100681.44
2022-09-30T17:11:53.327Z,100690.88
2022-09-30T17:14:19.801Z,100686.06
2022-09-30T17:16:46.634Z,100693.47
2022-09-30T17:19:13.674Z,100687.44
2022-09-30T17:21:40.039Z,100696.53
2022-09-30T17:24:06.478Z,100693.34
2022-09-30T17:26:33.276Z,100695.34
2022-09-30T17:29:14.579Z,100702.56
2022-09-30T17:31:46.838Z,100698.72
2022-09-30T17:34:13.448Z,100703.88
2022-09-30T17:36:40.038Z,100709.09
2022-09-30T17:39:07.561Z,100702.88
2022-09-30T17:41:53.102Z,100707.03
2022-09-30T17:44:19.469Z,100703.19
2022-09-30T17:46:45.995Z,100707.38
2022-09-30T17:49:13.714Z,100710.38
2022-09-30T17:51:40.206Z,100700.84
2022-09-30T17:54:07.317Z,100703.00
2022-09-30T17:56:34.919Z,100700.63
2022-09-30T17:59:01.944Z,100695.59
2022-09-30T18:01:28.826Z,100693.25
2022-09-30T18:03:59.497Z,100688.56
2022-09-30T18:06:27.483Z,100694.91
2022-09-30T18:08:54.316Z,100691.22
2022-09-30T18:11:26.038Z,100698.94
2022-09-30T18:13:57.757Z,100691.06
2022-09-30T18:16:30.706Z,100695.59
2022-09-30T18:18:59.307Z,100698.44
2022-09-30T18:21:25.770Z,100687.50
2022-09-30T18:23:53.703Z,100689.69
2022-09-30T18:26:20.768Z,100706.59
2022-09-30T18:28:48.106Z,100698.75
2022-09-30T18:31:20.054Z,100697.38
2022-09-30T18:33:51.623Z,100695.84
2022-09-30T18:36:18.165Z,100687.63
2022-09-30T18:38:44.498Z,100687.63
2022-09-30T18:41:11.246Z,100687.94
2022-09-30T18:43:38.165Z,100689.25
2022-09-30T18:46:05.300Z,100687.56
2022-09-30T18:48:33.093Z,100685.88
2022-09-30T18:51:03.936Z,100672.97
2022-09-30T18:53:34.408Z,100675.81
2022-09-30T18:56:02.231Z,100675.16
2022-09-30T18:58:30.469Z,100670.94
2022-09-30T19:01:00.576Z,100666.44
2022-09-30T19:03:31.525Z,100664.75
2022-09-30T19:05:59.271Z,100655.50
2022-09-30T19:08:26.751Z,100661.56
2022-09-30T19:10:54.855Z,100661.72
2022-09-30T19:13:21.614Z,100666.22
2022-09-30T19:15:48.035Z,100662.56
2022-09-30T19:18:14.380Z,100666.06
2022-09-30T19:20:41.122Z,100671.28
2022-09-30T19:23:09.430Z,100658.88
2022-09-30T19:25:35.790Z,100663.38
2022-09-30T19:28:03.314Z,100658.19
2022-09-30T19:30:29.796Z,100652.16
2022-09-30T19:32:59.128Z,100663.03
2022-09-30T19:35:38.891Z,100653.31
2022-09-30T19:38:06.716Z,100642.78
2022-09-30T19:43:04.611Z,100645.63
2022-09-30T19:45:31.361Z,100635.06
2022-09-30T19:47:59.320Z,100635.22
2022-09-30T19:50:26.121Z,100635.91
2022-09-30T19:52:57.291Z,100637.59
2022-09-30T19:55:24.696Z,100624.34
2022-09-30T19:57:51.516Z,100628.72
2022-09-30T20:00:18.256Z,100627.88
2022-09-30T20:02:44.587Z,100628.56
2022-09-30T20:05:10.988Z,100616.00
2022-09-30T20:07:37.513Z,100620.53
2022-09-30T20:10:06.578Z,100609.13
2022-09-30T20:12:32.952Z,100613.34
2022-09-30T20:15:18.199Z,100615.16
2022-09-30T20:17:44.547Z,100603.09
2022-09-30T20:20:29.503Z,100607.63
2022-09-30T20:22:57.111Z,100610.44
2022-09-30T20:25:23.487Z,100607.94
2022-09-30T20:27:52.648Z,100600.91
2022-09-30T20:30:20.318Z,100597.22
2022-09-30T20:32:46.723Z,100592.03
2022-09-30T20:35:13.777Z,100587.50
2022-09-30T20:37:40.862Z,100604.03
2022-09-30T20:40:09.252Z,100598.34
2022-09-30T20:42:37.827Z,100605.22
2022-09-30T20:45:10.601Z,100601.88
2022-09-30T20:47:38.658Z,100598.69
2022-09-30T20:50:06.612Z,100586.28
2022-09-30T20:52:33.023Z,100589.44
2022-09-30T20:55:00.258Z,100583.59
2022-09-30T20:57:29.977Z,100583.91
2022-09-30T20:59:57.408Z,100585.06
2022-09-30T21:02:27.898Z,100574.81
2022-09-30T21:04:55.502Z,100576.81
2022-09-30T21:07:21.847Z,100579.84
2022-09-30T21:09:48.195Z,100574.63
2022-09-30T21:12:16.841Z,100585.50
2022-09-30T21:14:43.555Z,100577.78
2022-09-30T21:17:10.086Z,100573.75
2022-09-30T21:19:36.453Z,100570.06
2022-09-30T21:22:02.856Z,100568.38
2022-09-30T21:24:29.258Z,100570.22
2022-09-30T21:26:56.194Z,100574.06
2022-09-30T21:29:22.977Z,100557.13
2022-09-30T21:31:49.444Z,100553.09
2022-09-30T21:34:15.864Z,100557.13
2022-09-30T21:36:42.331Z,100558.13
2022-09-30T21:39:08.788Z,100540.88
2022-09-30T21:41:35.803Z,100551.25
2022-09-30T21:44:03.860Z,100548.72
2022-09-30T21:46:30.397Z,100538.38
2022-09-30T21:49:13.738Z,100541.84
2022-09-30T21:51:40.131Z,100544.03
2022-09-30T21:54:06.586Z,100528.47
2022-09-30T21:56:33.730Z,100536.78
2022-09-30T21:59:00.199Z,100534.59
2022-09-30T22:01:26.707Z,100532.41
2022-09-30T22:03:53.136Z,100528.34
2022-09-30T22:06:19.483Z,100526.81
2022-09-30T22:08:46.046Z,100523.78
2022-09-30T22:11:18.161Z,100520.41
2022-09-30T22:13:45.972Z,100521.72
2022-09-30T22:16:15.290Z,100517.53
2022-09-30T22:18:42.741Z,100518.50
2022-09-30T22:21:12.509Z,100520.66
2022-09-30T22:23:39.159Z,100525.16
2022-09-30T22:26:17.734Z,100522.66
2022-09-30T22:28:45.975Z,100509.31
2022-09-30T22:31:19.389Z,100505.28
2022-09-30T22:34:09.400Z,100506.66
2022-09-30T22:36:54.928Z,100502.69
2022-09-30T22:39:22.485Z,100495.38
2022-09-30T22:41:52.988Z,100504.13
2022-09-30T22:44:25.462Z,100497.81
2022-09-30T22:46:53.011Z,100502.03
2022-09-30T22:49:19.465Z,100495.38
2022-09-30T22:51:49.408Z,100484.69
2022-09-30T22:54:15.819Z,100485.69
2022-09-30T22:56:42.186Z,100482.88
2022-09-30T22:59:08.623Z,100472.31
2022-09-30T23:01:35.285Z,100468.84
2022-09-30T23:04:01.949Z,100467.34
2022-09-30T23:06:28.822Z,100467.72
2022-09-30T23:08:55.567Z,100466.56
2022-09-30T23:11:23.233Z,100475.06
2022-09-30T23:13:51.175Z,100475.59
2022-09-30T23:16:19.121Z,100467.09
2022-09-30T23:18:48.757Z,100470.97
2022-09-30T23:21:21.022Z,100454.41
2022-09-30T23:23:48.793Z,100458.13
2022-09-30T23:26:16.570Z,100459.44
2022-09-30T23:28:42.990Z,100432.53
2022-09-30T23:31:12.138Z,100439.75
2022-09-30T23:33:46.566Z,100441.75
2022-09-30T23:36:15.148Z,100432.56
2022-09-30T23:38:41.621Z,100423.88
2022-09-30T23:41:08.132Z,100423.38
2022-09-30T23:43:35.012Z,100422.03
2022-09-30T23:46:02.116Z,100418.03
2022-09-30T23:48:29.121Z,100418.53
2022-09-30T23:50:56.096Z,100413.03
2022-09-30T23:53:23.450Z,100419.53
2022-09-30T23:55:54.053Z,100412.00
2022-09-30T23:58:20.581Z,100400.63
